Portada
METAR-TAF:

METAR-TAF

Aeropuertos :

Aeropuerto de Copenhague-Kastrup

Copenhague, Dinamarca

latitud: 55-37N, longitud: 012-39E, altitud: 5 m

Observación

El informe se hizo hace 9 minutos, a las 07:20 UTC
Viento 15 kt del oeste
Temperatura 4°C
Humedad 87%
Presión 1009 hPa
Visibilidad 10 km o más

METAR: EKCH 210720Z AUTO 26015KT 9999 NCD 04/02 Q1009 NOSIG

Hora: 08:29 (07:29 UTC)

Pronóstico

El informe se hizo hace 2 horas y 22 minutos, a las 05:07 UTC
Pronóstico válido del 21 a las 06 UTC al 22 a las 06 UTC
Viento 16 kt del oeste
Visibilidad 10 km o más
Nubes dispersas a una altura de 2000 ft
Evolucionando progresivamente
del 21 a las 17 UTC al 21 a las 19 UTC
Viento 22 kt del suroeste
Temporalmente
del 21 a las 19 UTC al 22 a las 06 UTC
Viento 22 kt del suroeste con ráfagas de 34 kt
Cielo nuboso a una altura de 1000 ft

TAF: EKCH 210507Z 2106/2206 28016KT 9999 SCT020 BECMG 2117/2119 22022KT TEMPO 2119/2206 22022G34KT BKN010

Observaciones y pronósticos meteorológicos de más de 4000 aeropuertos (mensajes METAR y TAF).

Los puntos amarillos y rojos representan las estaciones disponibles.

Ponga el ratón en el punto deseado para ver el nombre de la estación.

Haga clic para ver las observaciones y los pronósticos meteorológicos.

Para cambiar el mapa : haga clic en los botones verdes con una cruz de color negro para hacer un zoom, en el botón verde con un guión para alejar o en las flechas verdes para mapas adyacentes.


METAR-TAF: